Time;durP1;ratioP1;P1;durP2;ratioP2;P2;SDS_P1;SDS_P2;PMS_P1;PMS_P2;Temp;Humidity;BMP_temperature;BMP_pressure;BME280_temperature;BME280_humidity;BME280_pressure;Samples;Min_cycle;Max_cycle;Signal;HPM_P1;HPM_P2
2022/09/09 00:01:34;;;;;;;9.82;6.20;;;14.40;99.90;;;;;;5055115;28;20045;-66
2022/09/09 00:04:09;;;;;;;10.75;6.50;;;14.40;99.90;;;;;;5066027;28;20088;-66
2022/09/09 00:07:18;;;;;;;10.38;5.32;;;14.40;99.90;;;;;;5070305;28;20082;-66
2022/09/09 00:09:53;;;;;;;11.95;5.53;;;14.30;99.90;;;;;;5044769;28;20124;-66
2022/09/09 00:12:27;;;;;;;8.70;5.18;;;14.20;99.90;;;;;;5066728;28;20059;-66
2022/09/09 00:15:12;;;;;;;11.10;4.63;;;14.10;99.90;;;;;;5054852;28;20032;-66
2022/09/09 00:17:56;;;;;;;4.10;3.35;;;14.00;99.90;;;;;;5071596;28;20102;-65
2022/09/09 00:20:46;;;;;;;4.68;4.00;;;14.10;99.90;;;;;;5061932;28;20091;-65
2022/09/09 00:23:19;;;;;;;;;;;14.10;99.90;;;;;;5065467;28;20071;-65
2022/09/09 00:25:58;;;;;;;8.25;4.78;;;14.00;99.90;;;;;;5072466;28;19924;-65
2022/09/09 00:28:26;;;;;;;7.85;3.20;;;14.00;99.90;;;;;;5046319;28;20046;-65
2022/09/09 00:30:54;;;;;;;7.38;4.68;;;14.00;99.90;;;;;;5064099;28;20384;-65
2022/09/09 00:33:23;;;;;;;6.15;3.45;;;14.00;99.90;;;;;;5080201;28;20037;-65
2022/09/09 00:35:56;;;;;;;9.50;3.75;;;14.00;99.90;;;;;;5069100;28;20086;-65
2022/09/09 00:38:42;;;;;;;7.75;4.90;;;14.00;99.90;;;;;;5068465;28;20036;-65
2022/09/09 00:41:41;;;;;;;9.82;4.95;;;14.00;99.90;;;;;;5071979;28;20047;-66
2022/09/09 00:44:23;;;;;;;11.95;6.60;;;14.10;99.90;;;;;;5064042;28;20055;-65
2022/09/09 00:47:07;;;;;;;12.63;6.88;;;14.20;99.90;;;;;;5064486;28;20051;-65
2022/09/09 00:49:47;;;;;;;10.80;6.47;;;14.20;99.90;;;;;;5072485;28;20087;-65
2022/09/09 00:52:29;;;;;;;15.35;7.60;;;14.40;99.90;;;;;;5066233;28;20048;-66
2022/09/09 00:55:11;;;;;;;11.40;6.97;;;14.50;99.90;;;;;;5077205;28;20097;-66
2022/09/09 00:57:38;;;;;;;17.95;7.28;;;14.60;99.90;;;;;;5087687;28;20058;-66
2022/09/09 01:00:19;;;;;;;14.15;7.32;;;14.60;99.90;;;;;;5083915;28;20044;-65
2022/09/09 01:02:45;;;;;;;11.13;6.90;;;14.70;99.90;;;;;;5066654;28;20041;-65
2022/09/09 01:05:19;;;;;;;13.73;7.18;;;14.70;99.90;;;;;;5071082;28;20040;-66
2022/09/09 01:07:49;;;;;;;15.23;8.20;;;14.70;99.90;;;;;;5072217;28;20036;-65
2022/09/09 01:10:49;;;;;;;11.45;7.20;;;14.80;99.90;;;;;;5068448;28;20020;-65
2022/09/09 01:13:25;;;;;;;15.02;7.82;;;14.80;99.90;;;;;;5075431;28;20043;-65
2022/09/09 01:15:53;;;;;;;10.27;7.38;;;14.90;99.90;;;;;;5074672;28;20054;-65
2022/09/09 01:18:22;;;;;;;13.77;8.07;;;15.00;99.90;;;;;;5054319;28;20111;-65
2022/09/09 01:20:50;;;;;;;13.35;8.60;;;15.00;99.90;;;;;;5063009;28;20033;-65
2022/09/09 01:23:28;;;;;;;13.63;8.20;;;15.00;99.90;;;;;;5071625;28;20049;-66
2022/09/09 01:26:25;;;;;;;13.25;8.20;;;15.00;99.90;;;;;;5071601;28;20072;-65
2022/09/09 01:28:55;;;;;;;14.95;7.97;;;15.00;99.90;;;;;;5063476;28;20036;-66
2022/09/09 01:31:30;;;;;;;11.98;7.88;;;15.00;99.90;;;;;;5071134;28;20068;-65
2022/09/09 01:33:56;;;;;;;13.68;8.20;;;15.00;99.90;;;;;;5068674;28;20028;-66
2022/09/09 01:36:45;;;;;;;12.20;7.85;;;14.90;99.90;;;;;;5075466;28;20085;-66
2022/09/09 01:39:12;;;;;;;15.93;7.97;;;14.90;99.90;;;;;;5090949;28;20108;-66
2022/09/09 01:41:38;;;;;;;12.63;8.43;;;14.90;99.90;;;;;;5084753;28;20048;-65
2022/09/09 01:44:05;;;;;;;13.82;8.25;;;14.90;99.90;;;;;;5062291;28;20438;-66
2022/09/09 01:46:31;;;;;;;14.85;8.98;;;14.90;99.90;;;;;;5053161;28;20403;-66
2022/09/09 01:48:58;;;;;;;12.48;8.27;;;14.80;99.90;;;;;;5069386;28;20106;-65
2022/09/09 01:51:24;;;;;;;12.65;8.73;;;14.90;99.90;;;;;;5050519;28;20729;-65
2022/09/09 01:53:50;;;;;;;14.00;8.60;;;14.80;99.90;;;;;;5068316;28;20067;-65
2022/09/09 01:56:22;;;;;;;14.55;9.48;;;14.80;99.90;;;;;;5072891;28;20040;-66
2022/09/09 01:59:05;;;;;;;15.90;9.52;;;14.80;99.90;;;;;;5071468;28;20503;-65
2022/09/09 02:01:42;;;;;;;16.13;8.77;;;14.80;99.90;;;;;;5064479;28;20044;-65
2022/09/09 02:04:27;;;;;;;14.23;9.52;;;14.80;99.90;;;;;;5070461;28;20036;-65
2022/09/09 02:06:56;;;;;;;15.93;9.38;;;14.80;99.90;;;;;;5069000;28;20079;-66
2022/09/09 02:09:24;;;;;;;14.45;9.35;;;14.70;99.90;;;;;;5059328;28;20060;-66
2022/09/09 02:12:09;;;;;;;17.10;9.23;;;14.70;99.90;;;;;;5080947;28;20064;-65
2022/09/09 02:14:45;;;;;;;12.10;8.95;;;14.70;99.90;;;;;;5075746;28;20036;-65
2022/09/09 02:17:15;;;;;;;14.65;9.88;;;14.70;99.90;;;;;;5067758;28;20024;-66
2022/09/09 02:19:53;;;;;;;13.82;9.13;;;14.70;99.90;;;;;;5065855;28;20067;-66
2022/09/09 02:22:23;;;;;;;14.90;9.68;;;14.70;99.90;;;;;;5069008;28;20036;-66
2022/09/09 02:24:51;;;;;;;13.85;9.38;;;14.70;99.90;;;;;;5064432;28;20040;-65
2022/09/09 02:27:20;;;;;;;15.43;9.48;;;14.70;99.90;;;;;;5068983;28;20044;-66
2022/09/09 02:29:47;;;;;;;14.60;9.23;;;14.70;99.90;;;;;;5070741;28;20098;-65
2022/09/09 02:32:17;;;;;;;11.18;8.90;;;14.70;99.90;;;;;;5063097;28;20712;-66
2022/09/09 02:34:47;;;;;;;12.77;8.93;;;14.80;99.90;;;;;;5063895;28;20414;-65
2022/09/09 02:37:17;;;;;;;13.32;8.77;;;14.70;99.90;;;;;;5074477;28;20041;-66
2022/09/09 02:39:42;;;;;;;11.38;8.07;;;14.80;99.90;;;;;;5068877;28;20080;-65
2022/09/09 02:42:09;;;;;;;14.55;7.85;;;14.80;99.90;;;;;;5057684;28;20541;-65
2022/09/09 02:44:36;;;;;;;10.32;7.28;;;14.80;99.90;;;;;;5070077;28;20036;-65
2022/09/09 02:47:24;;;;;;;9.95;6.47;;;14.80;99.90;;;;;;5036503;28;20048;-65
2022/09/09 02:50:20;;;;;;;10.90;6.18;;;14.80;99.90;;;;;;5049136;28;20049;-65
2022/09/09 02:53:10;;;;;;;9.23;5.60;;;14.80;99.90;;;;;;5058514;28;20119;-65
2022/09/09 02:55:45;;;;;;;7.63;4.93;;;14.70;99.90;;;;;;5069442;28;20044;-65
2022/09/09 02:58:16;;;;;;;6.97;4.90;;;14.80;99.90;;;;;;5038361;28;20064;-65
2022/09/09 03:00:45;;;;;;;8.80;4.45;;;14.80;99.90;;;;;;5048124;28;20402;-65
2022/09/09 03:03:11;;;;;;;6.95;4.20;;;14.80;99.90;;;;;;5079329;28;20040;-65
2022/09/09 03:05:38;;;;;;;6.50;3.85;;;14.80;99.90;;;;;;5056136;28;20117;-65
2022/09/09 03:08:05;;;;;;;5.13;3.83;;;14.80;99.90;;;;;;5060038;28;20514;-66
2022/09/09 03:10:31;;;;;;;6.53;3.45;;;14.70;99.90;;;;;;5067849;28;20044;-65
2022/09/09 03:12:57;;;;;;;7.32;3.40;;;14.70;99.90;;;;;;5068980;28;20040;-66
2022/09/09 03:15:23;;;;;;;6.03;3.30;;;14.70;99.90;;;;;;5064953;28;20062;-65
2022/09/09 03:17:48;;;;;;;6.43;3.40;;;14.70;99.90;;;;;;5044045;28;20465;-65
2022/09/09 03:20:14;;;;;;;5.25;3.38;;;14.70;99.90;;;;;;5090287;28;20115;-66
2022/09/09 03:22:40;;;;;;;6.60;3.42;;;14.70;99.90;;;;;;5089991;28;20123;-65
2022/09/09 03:25:06;;;;;;;8.82;3.38;;;14.60;99.90;;;;;;5060397;28;20124;-65
2022/09/09 03:27:32;;;;;;;6.43;3.83;;;14.60;99.90;;;;;;5076338;28;20032;-65
2022/09/09 03:29:58;;;;;;;8.18;4.53;;;14.60;99.90;;;;;;5093154;28;20494;-66
2022/09/09 03:32:26;;;;;;;7.88;5.53;;;14.60;99.90;;;;;;5051392;28;20043;-65
2022/09/09 03:34:52;;;;;;;11.15;6.32;;;14.60;99.90;;;;;;5070583;28;20040;-66
2022/09/09 03:37:18;;;;;;;11.18;6.90;;;14.60;99.90;;;;;;5073857;28;20491;-66
2022/09/09 03:39:44;;;;;;;10.73;6.97;;;14.60;99.90;;;;;;5062753;28;20095;-65
2022/09/09 03:42:13;;;;;;;13.60;7.75;;;14.60;99.90;;;;;;5072393;28;20052;-66
2022/09/09 03:44:40;;;;;;;13.25;8.98;;;14.60;99.90;;;;;;5089574;28;20036;-65
2022/09/09 03:47:06;;;;;;;13.38;9.05;;;14.70;99.90;;;;;;5054315;28;20048;-65
2022/09/09 03:49:32;;;;;;;16.23;9.98;;;14.70;99.90;;;;;;5046909;28;20041;-65
2022/09/09 03:51:58;;;;;;;16.20;10.38;;;14.70;99.90;;;;;;5080745;28;20043;-66
2022/09/09 03:54:25;;;;;;;15.75;10.07;;;14.70;99.90;;;;;;5075734;28;20044;-66
2022/09/09 03:56:51;;;;;;;19.92;11.10;;;14.70;99.90;;;;;;5075898;28;20498;-66
2022/09/09 03:59:17;;;;;;;17.70;9.90;;;14.80;99.90;;;;;;5065982;28;20081;-66
2022/09/09 04:01:42;;;;;;;19.30;10.45;;;14.70;99.90;;;;;;5069473;28;20064;-65
2022/09/09 04:04:08;;;;;;;18.70;10.80;;;14.80;99.90;;;;;;5059805;28;20032;-65
2022/09/09 04:06:35;;;;;;;17.75;10.25;;;14.80;99.90;;;;;;5064369;28;20037;-66
2022/09/09 04:09:03;;;;;;;16.33;11.07;;;14.80;99.90;;;;;;5070998;28;20036;-65
2022/09/09 04:11:29;;;;;;;17.15;10.80;;;14.70;99.90;;;;;;5072535;28;20171;-65
2022/09/09 04:13:54;;;;;;;16.85;10.20;;;14.70;99.90;;;;;;5073126;28;20067;-66
2022/09/09 04:16:20;;;;;;;19.90;10.65;;;14.70;99.90;;;;;;5060224;28;20515;-65
2022/09/09 04:18:46;;;;;;;15.20;10.10;;;14.70;99.90;;;;;;5050434;28;20048;-65
2022/09/09 04:21:12;;;;;;;16.45;10.52;;;14.70;99.90;;;;;;5060931;28;20043;-65
2022/09/09 04:23:38;;;;;;;16.35;10.07;;;14.70;99.90;;;;;;5062714;28;20047;-66
2022/09/09 04:26:04;;;;;;;16.77;9.85;;;14.70;99.90;;;;;;5068308;28;20549;-66
2022/09/09 04:28:32;;;;;;;13.93;9.85;;;14.70;99.90;;;;;;5072400;28;20068;-66
2022/09/09 04:31:05;;;;;;;15.13;10.77;;;14.70;99.90;;;;;;5065005;28;20044;-66
2022/09/09 04:33:31;;;;;;;15.93;10.30;;;14.70;99.90;;;;;;5067051;28;20040;-66
2022/09/09 04:35:57;;;;;;;17.42;10.43;;;14.60;99.90;;;;;;5063913;28;20097;-66
2022/09/09 04:38:22;;;;;;;18.15;10.15;;;14.60;99.90;;;;;;5076217;28;20071;-66
2022/09/09 04:40:49;;;;;;;15.80;9.95;;;14.60;99.90;;;;;;5071106;28;20067;-66
2022/09/09 04:43:15;;;;;;;15.80;10.38;;;14.60;99.90;;;;;;5053703;28;20494;-66
2022/09/09 04:45:42;;;;;;;13.57;9.95;;;14.50;99.90;;;;;;5068569;28;20562;-66
2022/09/09 04:48:09;;;;;;;16.65;9.80;;;14.50;99.90;;;;;;5069037;28;20028;-66
2022/09/09 04:50:35;;;;;;;15.20;10.20;;;14.50;99.90;;;;;;5077012;28;20036;-66
2022/09/09 04:53:05;;;;;;;14.98;9.75;;;14.40;99.90;;;;;;5054580;28;20539;-66
2022/09/09 04:55:31;;;;;;;16.42;9.52;;;14.40;99.90;;;;;;5049046;28;20047;-65
2022/09/09 04:57:57;;;;;;;17.23;9.57;;;14.40;99.90;;;;;;5065245;28;20442;-66
2022/09/09 05:00:24;;;;;;;17.23;9.20;;;14.40;99.90;;;;;;5054036;28;20044;-65
2022/09/09 05:02:49;;;;;;;17.13;9.23;;;14.40;99.90;;;;;;5088751;28;20515;-66
2022/09/09 05:05:16;;;;;;;13.82;8.88;;;14.40;99.90;;;;;;5064707;28;20040;-65
2022/09/09 05:07:42;;;;;;;16.40;10.00;;;14.30;99.90;;;;;;5050129;28;20033;-65
2022/09/09 05:10:08;;;;;;;14.18;9.50;;;14.30;99.90;;;;;;5057996;28;20037;-66
2022/09/09 05:12:34;;;;;;;13.43;9.23;;;14.30;99.90;;;;;;5054549;28;20142;-66
2022/09/09 05:14:59;;;;;;;14.82;9.52;;;14.30;99.90;;;;;;5068202;28;20475;-65
2022/09/09 05:17:25;;;;;;;13.57;9.13;;;14.20;99.90;;;;;;5079732;28;20502;-66
2022/09/09 05:19:50;;;;;;;15.60;9.35;;;14.20;99.90;;;;;;5061965;28;20048;-65
2022/09/09 05:22:20;;;;;;;13.50;8.82;;;14.20;99.90;;;;;;5064766;28;20079;-64
2022/09/09 05:24:46;;;;;;;15.15;8.77;;;14.20;99.90;;;;;;5057019;28;20039;-65
2022/09/09 05:27:12;;;;;;;14.40;8.98;;;14.20;99.90;;;;;;5070255;28;20032;-64
2022/09/09 05:29:38;;;;;;;16.80;9.60;;;14.20;99.90;;;;;;5061304;28;20445;-64
2022/09/09 05:32:04;;;;;;;12.35;8.40;;;14.30;99.90;;;;;;5055806;28;20099;-65
2022/09/09 05:34:30;;;;;;;15.23;8.88;;;14.30;99.90;;;;;;5068589;28;20032;-64
2022/09/09 05:36:55;;;;;;;13.00;8.80;;;14.40;99.90;;;;;;5047240;28;20406;-64
2022/09/09 05:39:21;;;;;;;14.50;8.88;;;14.40;99.90;;;;;;5045444;28;20119;-65
2022/09/09 05:41:47;;;;;;;13.55;8.43;;;14.40;99.90;;;;;;5048671;28;20055;-66
2022/09/09 05:44:13;;;;;;;13.45;8.90;;;14.40;99.90;;;;;;5068483;28;20040;-65
2022/09/09 05:46:39;;;;;;;14.02;8.82;;;14.50;99.90;;;;;;5045412;28;20119;-65
2022/09/09 05:49:05;;;;;;;13.73;8.77;;;14.60;99.90;;;;;;5052359;28;20544;-65
2022/09/09 05:51:31;;;;;;;11.82;8.23;;;14.70;99.90;;;;;;5070346;28;20033;-66
2022/09/09 05:54:00;;;;;;;14.57;8.82;;;14.80;99.90;;;;;;5042118;28;20064;-66
2022/09/09 05:56:27;;;;;;;12.45;8.25;;;14.80;99.90;;;;;;5068286;28;20036;-65
2022/09/09 05:58:54;;;;;;;12.27;8.48;;;15.00;99.90;;;;;;5052584;28;20045;-65
2022/09/09 06:01:21;;;;;;;14.10;8.27;;;15.00;99.90;;;;;;5065357;28;20044;-66
2022/09/09 06:03:48;;;;;;;14.13;8.27;;;15.00;99.90;;;;;;5058182;28;20095;-65
2022/09/09 06:06:22;;;;;;;14.43;8.38;;;15.00;99.90;;;;;;5070765;28;20043;-66
2022/09/09 06:08:50;;;;;;;11.77;7.45;;;15.10;99.90;;;;;;5070951;28;20420;-66
2022/09/09 06:11:22;;;;;;;11.27;7.68;;;15.10;99.90;;;;;;5059729;28;20051;-66
2022/09/09 06:13:51;;;;;;;14.05;7.28;;;15.20;99.90;;;;;;5064151;28;20407;-65
2022/09/09 06:16:18;;;;;;;10.70;6.75;;;15.20;99.90;;;;;;5070881;28;20040;-66
2022/09/09 06:18:44;;;;;;;11.30;7.28;;;15.20;99.90;;;;;;5062029;28;20483;-66
2022/09/09 06:21:23;;;;;;;10.73;7.28;;;15.30;99.90;;;;;;5066130;28;20441;-67
2022/09/09 06:23:51;;;;;;;11.98;7.43;;;15.30;99.90;;;;;;5070363;28;20040;-66
2022/09/09 06:26:30;;;;;;;11.70;7.35;;;15.30;99.90;;;;;;5070457;28;20117;-68
2022/09/09 06:28:57;;;;;;;11.50;6.57;;;15.30;99.90;;;;;;5057939;28;20075;-67
2022/09/09 06:31:30;;;;;;;11.63;7.30;;;15.40;99.90;;;;;;5064023;28;20025;-68
2022/09/09 06:33:57;;;;;;;12.18;6.82;;;15.40;99.90;;;;;;5070386;28;20089;-67
2022/09/09 06:36:23;;;;;;;11.25;7.28;;;15.50;99.90;;;;;;5060724;28;20071;-67
2022/09/09 06:38:49;;;;;;;10.65;7.38;;;15.50;99.90;;;;;;5068580;28;20040;-67
2022/09/09 06:41:18;;;;;;;13.45;7.40;;;15.50;99.90;;;;;;5070322;28;20040;-67
2022/09/09 06:43:44;;;;;;;13.18;7.72;;;15.60;99.90;;;;;;5052879;28;20486;-67
2022/09/09 06:46:15;;;;;;;10.40;7.38;;;15.60;99.90;;;;;;5060287;28;20040;-67
2022/09/09 06:48:42;;;;;;;10.27;7.22;;;15.60;99.90;;;;;;5038108;28;20659;-67
2022/09/09 06:51:20;;;;;;;11.48;7.60;;;15.70;99.90;;;;;;5066754;28;20513;-67
2022/09/09 06:53:47;;;;;;;14.73;7.18;;;15.80;99.90;;;;;;5047700;28;20041;-67
2022/09/09 06:56:21;;;;;;;19.63;8.00;;;15.90;99.90;;;;;;5061789;28;20146;-67
2022/09/09 06:58:48;;;;;;;14.25;7.40;;;15.90;99.90;;;;;;5069068;28;20055;-67
2022/09/09 07:01:20;;;;;;;13.93;8.00;;;16.00;99.90;;;;;;5043898;28;20437;-67
2022/09/09 07:03:47;;;;;;;;;;;16.00;99.90;;;;;;5053234;28;20036;-67
2022/09/09 07:06:19;;;;;;;18.98;7.15;;;16.10;99.90;;;;;;5062809;28;20328;-67
2022/09/09 07:08:54;;;;;;;;;;;16.20;99.90;;;;;;5066217;28;20033;-67
2022/09/09 07:11:22;;;;;;;13.20;7.20;;;16.30;99.90;;;;;;5055331;28;20009;-66
2022/09/09 07:13:49;;;;;;;9.93;7.10;;;16.40;99.90;;;;;;5072330;28;20036;-67
2022/09/09 07:16:17;;;;;;;11.73;6.97;;;16.40;99.90;;;;;;5072789;28;20081;-66
2022/09/09 07:18:43;;;;;;;12.02;7.35;;;16.40;99.90;;;;;;5070844;28;20040;-67
2022/09/09 07:21:11;;;;;;;12.85;7.80;;;16.50;99.90;;;;;;5072076;28;20048;-67
2022/09/09 07:23:38;;;;;;;15.35;7.75;;;16.40;99.90;;;;;;5073815;28;20051;-67
2022/09/09 07:26:25;;;;;;;11.50;7.07;;;16.40;99.90;;;;;;5064447;28;20049;-67
2022/09/09 07:28:51;;;;;;;13.02;7.38;;;16.40;99.90;;;;;;5073044;28;20032;-67
2022/09/09 07:31:26;;;;;;;13.65;7.68;;;16.30;99.90;;;;;;5055722;28;20064;-67
2022/09/09 07:33:52;;;;;;;14.48;7.38;;;16.30;99.90;;;;;;5066983;28;20036;-67
2022/09/09 07:36:26;;;;;;;16.52;7.68;;;16.40;99.90;;;;;;5068277;28;20047;-65
2022/09/09 07:38:57;;;;;;;9.80;7.05;;;16.40;99.90;;;;;;5071057;28;20036;-67
2022/09/09 07:41:27;;;;;;;11.52;7.32;;;16.40;99.90;;;;;;5056795;28;20511;-65
2022/09/09 07:43:56;;;;;;;11.93;7.75;;;16.50;99.90;;;;;;5068589;28;20036;-67
2022/09/09 07:46:25;;;;;;;13.80;7.72;;;16.50;99.90;;;;;;5070159;28;20068;-66
2022/09/09 07:48:55;;;;;;;11.77;8.25;;;16.50;99.90;;;;;;5048398;28;20041;-66
2022/09/09 07:51:31;;;;;;;14.32;8.07;;;16.50;99.90;;;;;;5053000;28;20068;-67
2022/09/09 07:54:09;;;;;;;13.65;7.95;;;16.70;99.90;;;;;;5054588;28;20049;-66
2022/09/09 07:56:35;;;;;;;14.52;8.35;;;16.70;99.90;;;;;;5069250;28;20047;-67
2022/09/09 07:59:01;;;;;;;14.45;8.25;;;16.80;99.90;;;;;;5061758;28;20412;-66
2022/09/09 08:01:31;;;;;;;10.95;7.47;;;16.90;99.90;;;;;;5067031;28;20524;-66
2022/09/09 08:04:00;;;;;;;15.38;8.23;;;16.90;99.90;;;;;;5043831;28;20487;-66
2022/09/09 08:06:28;;;;;;;12.98;8.45;;;17.10;99.90;;;;;;5072545;28;20036;-72
2022/09/09 08:08:54;;;;;;;13.77;8.00;;;17.30;99.90;;;;;;5055091;28;20075;-68
2022/09/09 08:11:22;;;;;;;12.93;7.45;;;17.40;99.90;;;;;;5043213;28;20069;-68
2022/09/09 08:13:50;;;;;;;11.15;7.57;;;17.60;99.90;;;;;;5051011;28;20041;-68
2022/09/09 08:16:21;;;;;;;12.18;7.97;;;17.60;99.90;;;;;;5071321;28;20059;-69
2022/09/09 08:18:51;;;;;;;16.48;7.63;;;17.80;99.90;;;;;;5072988;28;20032;-69
2022/09/09 08:21:23;;;;;;;13.70;7.47;;;17.90;99.90;;;;;;5064268;28;20060;-69
2022/09/09 08:23:51;;;;;;;13.68;7.78;;;18.10;99.90;;;;;;5054495;28;20089;-69
2022/09/09 08:26:23;;;;;;;12.55;7.15;;;18.20;99.90;;;;;;5053212;28;20147;-69
2022/09/09 08:28:52;;;;;;;;;;;18.30;99.90;;;;;;5057016;28;20403;-68
2022/09/09 08:31:23;;;;;;;10.35;6.72;;;18.20;99.90;;;;;;5071813;28;19923;-69
2022/09/09 08:33:49;;;;;;;10.88;6.50;;;18.20;99.90;;;;;;5072183;28;20499;-69
2022/09/09 08:36:22;;;;;;;15.30;6.50;;;18.20;99.90;;;;;;5045077;28;20433;-69
2022/09/09 08:38:50;;;;;;;15.93;6.80;;;18.10;99.90;;;;;;5063261;28;20032;-68
2022/09/09 08:41:21;;;;;;;14.32;5.97;;;18.20;99.90;;;;;;5072153;28;20063;-69
2022/09/09 08:43:48;;;;;;;11.18;6.18;;;18.10;99.90;;;;;;5071276;28;20048;-69
2022/09/09 08:46:32;;;;;;;16.42;6.63;;;18.30;99.90;;;;;;5055599;28;20047;-68
2022/09/09 08:49:23;;;;;;;11.85;6.15;;;18.30;99.90;;;;;;5064898;28;20494;-68
2022/09/09 08:51:50;;;;;;;12.82;6.03;;;18.40;99.90;;;;;;5059133;28;20049;-68
2022/09/09 08:54:16;;;;;;;9.32;5.47;;;18.50;99.90;;;;;;5072340;28;20052;-68
2022/09/09 08:56:42;;;;;;;9.65;5.80;;;18.70;99.90;;;;;;5070035;28;20074;-68
2022/09/09 08:59:14;;;;;;;10.57;5.93;;;18.90;99.90;;;;;;5067202;28;20032;-68
2022/09/09 09:02:04;;;;;;;9.93;4.80;;;19.10;99.90;;;;;;5071584;28;20043;-68
2022/09/09 09:04:51;;;;;;;11.27;5.30;;;18.80;99.90;;;;;;5022837;28;20051;-68
2022/09/09 09:07:40;;;;;;;10.85;5.38;;;18.70;99.90;;;;;;5035732;28;20445;-68
2022/09/09 09:10:20;;;;;;;10.07;5.05;;;18.70;99.90;;;;;;5070297;28;20078;-68
2022/09/09 09:12:47;;;;;;;12.95;5.03;;;18.80;99.90;;;;;;5055103;28;20452;-70
2022/09/09 09:15:30;;;;;;;10.10;4.80;;;18.80;99.90;;;;;;5056299;28;20670;-68
2022/09/09 09:17:57;;;;;;;10.23;4.82;;;19.00;99.90;;;;;;5064404;28;20565;-68
2022/09/09 09:21:05;;;;;;;10.85;4.57;;;19.10;99.90;;;;;;5068327;28;20037;-68
2022/09/09 09:23:45;;;;;;;11.13;4.18;;;19.10;99.90;;;;;;4999267;28;20053;-69
2022/09/09 09:26:11;;;;;;;10.15;4.28;;;19.20;99.90;;;;;;5071059;28;20513;-69
2022/09/09 09:28:42;;;;;;;10.95;4.20;;;19.00;99.90;;;;;;5071686;28;20502;-69
2022/09/09 09:31:11;;;;;;;13.70;3.85;;;18.80;99.90;;;;;;5063192;28;20041;-68
2022/09/09 09:33:52;;;;;;;8.73;3.83;;;18.70;99.90;;;;;;5069046;28;20033;-68
2022/09/09 09:36:39;;;;;;;8.93;4.28;;;18.70;99.90;;;;;;5053585;28;20043;-68
2022/09/09 09:39:05;;;;;;;12.30;4.35;;;18.80;99.90;;;;;;5068457;28;20070;-68
2022/09/09 09:41:32;;;;;;;9.75;3.40;;;18.80;99.90;;;;;;5059475;28;20487;-68
2022/09/09 09:43:59;;;;;;;7.93;3.40;;;18.90;99.90;;;;;;5069503;28;20040;-68
2022/09/09 09:46:26;;;;;;;9.80;3.22;;;18.90;99.90;;;;;;5071103;28;20059;-68
2022/09/09 09:49:01;;;;;;;10.93;4.22;;;19.00;99.90;;;;;;5068879;28;20131;-68
2022/09/09 09:51:29;;;;;;;12.32;3.70;;;19.10;99.90;;;;;;5063705;28;20034;-68
2022/09/09 09:54:13;;;;;;;12.02;3.78;;;19.20;99.90;;;;;;5070572;28;20041;-68
2022/09/09 09:56:40;;;;;;;14.07;3.92;;;19.30;99.90;;;;;;5067431;28;20162;-68
2022/09/09 09:59:05;;;;;;;6.82;3.28;;;19.40;99.90;;;;;;5066998;28;20033;-67
2022/09/09 10:01:38;;;;;;;8.82;3.42;;;19.40;99.90;;;;;;5070392;28;20040;-65
2022/09/09 10:04:18;;;;;;;7.85;3.35;;;19.20;99.90;;;;;;5068463;28;20113;-65
2022/09/09 10:06:44;;;;;;;10.52;3.63;;;19.40;99.90;;;;;;5059419;28;20064;-66
2022/09/09 10:09:33;;;;;;;11.55;4.10;;;19.50;99.90;;;;;;5069688;28;20421;-65
2022/09/09 10:12:04;;;;;;;18.40;3.40;;;19.60;99.90;;;;;;5068444;28;20043;-65
2022/09/09 10:14:42;;;;;;;12.80;3.75;;;19.60;99.90;;;;;;5056249;28;20053;-66
2022/09/09 10:17:27;;;;;;;8.05;3.40;;;19.70;99.90;;;;;;5069700;28;20062;-65
2022/09/09 10:20:19;;;;;;;6.05;3.20;;;19.60;99.90;;;;;;5051291;28;20415;-66
2022/09/09 10:22:51;;;;;;;8.23;3.30;;;19.50;99.90;;;;;;5061626;28;20040;-65
2022/09/09 10:25:46;;;;;;;7.85;3.05;;;19.30;99.90;;;;;;5059689;28;20035;-65
2022/09/09 10:28:15;;;;;;;6.57;3.00;;;19.40;99.90;;;;;;5019803;28;20167;-66
2022/09/09 10:31:06;;;;;;;7.68;3.20;;;19.30;99.90;;;;;;5070614;28;20040;-65
2022/09/09 10:33:41;;;;;;;7.20;3.05;;;19.20;99.90;;;;;;5040243;28;20774;-65
2022/09/09 10:36:21;;;;;;;8.77;3.42;;;19.20;99.90;;;;;;5060711;28;20051;-65
2022/09/09 10:38:53;;;;;;;7.97;3.10;;;19.20;99.90;;;;;;5066244;28;20082;-66
2022/09/09 10:41:44;;;;;;;4.70;2.75;;;19.20;99.90;;;;;;5067188;28;20082;-66
2022/09/09 10:44:47;;;;;;;8.10;3.05;;;19.40;99.90;;;;;;5062788;28;20736;-65
2022/09/09 10:47:22;;;;;;;11.48;2.85;;;19.70;99.90;;;;;;5062250;28;20040;-66
2022/09/09 10:49:54;;;;;;;7.00;2.65;;;20.00;99.90;;;;;;5066671;28;20086;-65
2022/09/09 10:52:25;;;;;;;;;;;20.00;99.90;;;;;;5062941;28;20052;-65
2022/09/09 10:54:51;;;;;;;8.68;2.90;;;20.10;99.90;;;;;;5070029;28;20378;-66
2022/09/09 10:57:22;;;;;;;9.43;2.60;;;20.00;99.90;;;;;;5070332;28;20051;-65
2022/09/09 10:59:56;;;;;;;7.22;2.47;;;20.00;99.90;;;;;;5062899;28;20028;-65
2022/09/09 11:02:30;;;;;;;5.30;2.55;;;20.00;99.90;;;;;;5062916;28;20082;-66
2022/09/09 11:05:18;;;;;;;8.38;2.40;;;20.00;99.90;;;;;;5065499;28;20116;-66
2022/09/09 11:07:52;;;;;;;7.60;2.92;;;20.10;99.90;;;;;;5068899;28;20032;-66
2022/09/09 11:10:34;;;;;;;7.22;2.78;;;20.20;99.90;;;;;;5058027;28;20510;-65
2022/09/09 11:13:06;;;;;;;11.80;2.95;;;20.20;99.90;;;;;;5061180;28;20040;-64
2022/09/09 11:15:40;;;;;;;13.40;2.90;;;20.20;99.90;;;;;;5070261;28;20070;-64
2022/09/09 11:18:12;;;;;;;9.20;2.70;;;20.30;99.90;;;;;;5059314;28;20111;-67
2022/09/09 11:20:39;;;;;;;7.07;2.70;;;20.20;99.90;;;;;;5066926;28;20044;-65
2022/09/09 11:23:15;;;;;;;5.47;2.35;;;20.30;99.90;;;;;;5066514;28;20048;-65
2022/09/09 11:25:52;;;;;;;6.68;2.58;;;20.40;99.90;;;;;;5064363;28;20055;-65
2022/09/09 11:28:26;;;;;;;7.95;2.53;;;20.60;99.90;;;;;;5057609;28;20075;-65
2022/09/09 11:31:17;;;;;;;7.07;2.20;;;20.50;99.90;;;;;;5048493;28;20039;-65
2022/09/09 11:34:05;;;;;;;5.97;2.25;;;20.20;99.90;;;;;;5067925;28;20044;-65
2022/09/09 11:36:49;;;;;;;6.20;2.10;;;20.00;99.90;;;;;;5051350;28;20055;-65
2022/09/09 11:39:30;;;;;;;7.85;2.22;;;20.00;99.90;;;;;;5068521;28;20044;-65
2022/09/09 11:42:18;;;;;;;7.43;2.83;;;20.10;99.90;;;;;;5064694;28;20051;-66
2022/09/09 11:44:44;;;;;;;7.57;2.50;;;20.20;99.90;;;;;;5069848;28;20041;-66
2022/09/09 11:47:29;;;;;;;3.95;2.40;;;20.50;99.90;;;;;;5067717;28;20146;-65
2022/09/09 11:50:26;;;;;;;10.38;2.50;;;20.80;99.90;;;;;;5058212;28;20051;-66
2022/09/09 11:53:05;;;;;;;5.88;2.30;;;21.00;99.90;;;;;;5070309;28;20658;-66
2022/09/09 11:55:33;;;;;;;5.85;2.28;;;21.10;99.90;;;;;;5063673;28;20045;-65
2022/09/09 11:58:15;;;;;;;6.15;2.05;;;21.20;99.90;;;;;;5069767;28;20091;-65
2022/09/09 12:00:48;;;;;;;9.27;2.65;;;21.10;99.90;;;;;;5050038;28;20062;-64
2022/09/09 12:03:36;;;;;;;7.53;3.13;;;21.20;99.90;;;;;;5069299;28;20095;-65
2022/09/09 12:06:26;;;;;;;7.13;2.30;;;21.60;99.90;;;;;;5072145;28;20420;-66
2022/09/09 12:08:57;;;;;;;7.70;2.33;;;21.70;99.90;;;;;;5067658;28;20395;-66
2022/09/09 12:11:30;;;;;;;6.20;2.45;;;21.70;99.90;;;;;;5062414;28;20037;-65
2022/09/09 12:14:00;;;;;;;8.65;2.22;;;21.80;99.90;;;;;;5070391;28;20402;-65
2022/09/09 12:16:35;;;;;;;6.35;2.25;;;21.80;99.90;;;;;;5072992;28;20036;-65
2022/09/09 12:19:21;;;;;;;4.57;2.20;;;21.40;99.90;;;;;;5072568;22;20055;-65
2022/09/09 12:22:15;;;;;;;7.18;2.42;;;21.30;99.90;;;;;;5054269;28;20037;-65
2022/09/09 12:25:00;;;;;;;6.97;2.40;;;21.20;99.90;;;;;;5052705;28;20095;-64
2022/09/09 12:27:34;;;;;;;5.57;2.30;;;21.10;99.90;;;;;;5071796;28;20470;-66
2022/09/09 12:30:15;;;;;;;9.60;2.58;;;21.10;99.90;;;;;;5082513;28;20041;-65
2022/09/09 12:32:44;;;;;;;10.10;2.65;;;21.20;99.90;;;;;;5076843;28;20048;-65
2022/09/09 12:35:11;;;;;;;9.32;2.20;;;21.20;99.90;;;;;;5080065;28;20047;-64
2022/09/09 12:37:39;;;;;;;4.82;2.40;;;21.10;99.90;;;;;;5079105;28;20690;-65
2022/09/09 12:40:29;;;;;;;5.82;2.33;;;20.90;99.90;;;;;;5070915;28;20160;-65
2022/09/09 12:42:55;;;;;;;11.35;2.80;;;20.60;99.90;;;;;;5079809;28;20127;-64
2022/09/09 12:45:24;;;;;;;6.53;2.90;;;20.10;99.90;;;;;;5083569;28;20029;-64
2022/09/09 12:48:11;;;;;;;8.20;2.55;;;19.60;99.90;;;;;;5084292;28;20028;-65
2022/09/09 12:50:57;;;;;;;6.80;2.38;;;19.40;99.90;;;;;;5078749;28;20078;-65
2022/09/09 12:53:35;;;;;;;7.20;2.30;;;19.30;99.90;;;;;;5071731;28;20063;-65
2022/09/09 12:56:18;;;;;;;6.60;2.55;;;19.30;99.90;;;;;;5071744;28;20089;-65
2022/09/09 12:58:47;;;;;;;9.50;2.60;;;19.40;99.90;;;;;;5076324;28;20064;-65
2022/09/09 13:01:28;;;;;;;7.70;2.92;;;19.60;99.90;;;;;;5085904;28;20036;-64
2022/09/09 13:03:55;;;;;;;8.68;3.85;;;19.70;99.90;;;;;;5092355;28;20097;-64
2022/09/09 13:06:29;;;;;;;10.48;3.20;;;19.90;99.90;;;;;;5083861;28;20079;-65
2022/09/09 13:08:58;;;;;;;11.10;3.10;;;20.30;99.90;;;;;;5071258;28;20119;-65